ADDS METAR Data INFO
IDs: Format: Raw Decoded Include TAF

Data at: 0333 UTC 19 Feb 2018

KODX 190253Z AUTO 36021G29KT 10SM OVC011 M02/M04 A2966 RMK AO2 PK WND 35031/0225 SLP061 T10221044 53006
KODX 190249Z AUTO 01019G28KT 10SM OVC011 M02/M04 A2966 RMK AO2 PK WND 35031/0225
KODX 190153Z AUTO 36022G29KT 10SM OVC013 M02/M04 A2963 RMK AO2 PK WND 35030/0106 SLP051 T10171039
KODX 190110Z AUTO 35017G30KT 10SM OVC014 M01/M04 A2964 RMK AO2 PK WND 35030/0106 T10111039
KODX 190053Z AUTO 35023G31KT 10SM BKN015 M01/M03 A2964 RMK AO2 PK WND 35031/0052 SLP055 T10061033
KODX 190051Z AUTO 35023G30KT 10SM BKN015 M01/M03 A2964 RMK AO2 PK WND 35030/0051
KODX 182353Z AUTO 35019KT 10SM CLR 02/M03 A2961 RMK AO2 PRESRR SLP041 T00221028 10133 20022 53039
KODX 182253Z AUTO 36013G22KT 10SM CLR 07/M02 A2955 RMK AO2 SLP018 T00671017
KODX 182153Z AUTO 27003KT 10SM CLR 13/M01 A2951 RMK AO2 SLP998 T01281006
KODX 182053Z AUTO 20008KT 10SM CLR 11/00 A2949 RMK AO2 SLP993 T01110000 56022
KODX 181953Z AUTO 22016KT 10SM CLR 11/M01 A2950 RMK AO2 SLP000 T01061006
KODX 181853Z AUTO 20018G24KT 10SM CLR 10/M01 A2952 RMK AO2 PK WND 19032/1817 SLP008 T01001011
KODX 181753Z AUTO 20013G19KT 10SM CLR 09/M02 A2956 RMK AO2 SLP020 T00891022 10089 20033 56015
KODX 181653Z AUTO 17013KT 10SM CLR 07/M03 A2958 RMK AO2 PK WND 18026/1601 SLP028 T00671033
KODX 181553Z AUTO 19016KT 10SM CLR 06/M03 A2958 RMK AO2 PK WND 19026/1533 SLP031 T00561033
KODX 181453Z AUTO 19015G24KT 10SM CLR 05/M04 A2960 RMK AO2 PK WND 20033/1357 SLP039 T00501039 56010
KODX 181353Z AUTO 20025G33KT 10SM CLR 04/M05 A2960 RMK AO2 PK WND 19033/1353 SLP040 T00441050
KODX 181253Z AUTO 20020G33KT 10SM CLR 04/M06 A2963 RMK AO2 PK WND 19033/1248 SLP047 T00391056
KODX 181153Z AUTO 19022G31KT 10SM CLR 04/M06 A2964 RMK AO2 PK WND 19033/1113 SLP047 T00391061 10039 21011 58044
KODX 181053Z AUTO 19021G30KT 10SM CLR 04/M07 A2968 RMK AO2 PK WND 17030/1049 SLP063 T00391067
KODX 180953Z AUTO 18017G28KT 10SM CLR 03/M07 A2974 RMK AO2 PK WND 18030/0904 SLP081 T00281067
KODX 180853Z AUTO 18019G28KT 10SM CLR 03/M06 A2977 RMK AO2 PK WND 18028/0848 SLP094 T00281061 56041
KODX 180753Z AUTO 17014G22KT 10SM CLR 01/M05 A2981 RMK AO2 SLP109 T00111050
KODX 180653Z AUTO 15006KT 10SM CLR M01/M04 A2986 RMK AO2 SLP127 T10111044
KODX 180553Z AUTO 15012G21KT 10SM CLR 01/M04 A2990 RMK AO2 SLP141 T00061044 10050 21006 400781033 58031
KODX 180453Z AUTO 13005KT 10SM CLR M01/M04 A2995 RMK AO2 SLP159 T10061039
KODX 180353Z AUTO 13010KT 10SM CLR 01/M03 A2998 RMK AO2 SLP168 T00061033
KODX 180253Z AUTO 14010KT 10SM CLR 01/M04 A3000 RMK AO2 SLP180 T00111044 58014
KODX 180153Z AUTO 15008KT 10SM CLR 01/M04 A3003 RMK AO2 SLP193 T00111044
KODX 180053Z AUTO 10006KT 10SM CLR 01/M04 A3003 RMK AO2 SLP192 T00111044
KODX 172353Z AUTO 00000KT 10SM CLR 05/M05 A3005 RMK AO2 SLP194 T00501050 10078 20044 50002
KODX 172253Z AUTO 34006KT 10SM CLR 07/M04 A3005 RMK AO2 SLP195 T00671044
KODX 172153Z AUTO 33011KT 10SM CLR 07/M04 A3005 RMK AO2 SLP194 T00671044
KODX 172053Z AUTO 33014KT 10SM CLR 07/M04 A3004 RMK AO2 SLP190 T00671044 52006
KODX 171953Z AUTO 32011KT 10SM CLR 07/M04 A3004 RMK AO2 SLP189 T00671039
KODX 171853Z AUTO 35013G21KT 10SM CLR 07/M04 A3003 RMK AO2 SLP184 T00721044
KODX 171753Z AUTO 33011KT 10SM CLR 07/M04 A3002 RMK AO2 SLP184 60000 T00671044 10067 21028 51023
KODX 171653Z AUTO 32007G16KT 10SM CLR 05/M04 A3001 RMK AO2 RAB05E25 SLP181 P0000 T00501044
KODX 171553Z AUTO 31009KT 10SM CLR 03/M04 A2999 RMK AO2 SLP175 T00331039